sensor_id;sensor_type;location;lat;lon;timestamp;P1;P2;P0
46044;PMS7003;31781;54.094;13.428;2022-07-01T00:03:06;9.00;9.00;7.00
46044;PMS7003;31781;54.094;13.428;2022-07-01T00:08:14;9.50;9.50;8.00
46044;PMS7003;31781;54.094;13.428;2022-07-01T00:13:17;11.75;10.25;8.00
46044;PMS7003;31781;54.094;13.428;2022-07-01T00:18:19;10.00;10.00;7.50
46044;PMS7003;31781;54.094;13.428;2022-07-01T00:23:27;11.75;11.75;8.50
46044;PMS7003;31781;54.094;13.428;2022-07-01T00:28:30;8.25;8.25;6.00
46044;PMS7003;31781;54.094;13.428;2022-07-01T00:33:33;10.00;10.00;6.25
46044;PMS7003;31781;54.094;13.428;2022-07-01T00:38:41;5.75;5.75;5.25
46044;PMS7003;31781;54.094;13.428;2022-07-01T00:43:44;11.50;10.25;8.00
46044;PMS7003;31781;54.094;13.428;2022-07-01T00:48:57;10.75;10.75;8.25
46044;PMS7003;31781;54.094;13.428;2022-07-01T00:54:06;13.75;11.50;8.75
46044;PMS7003;31781;54.094;13.428;2022-07-01T00:59:09;10.00;10.00;8.00
46044;PMS7003;31781;54.094;13.428;2022-07-01T01:04:12;13.25;11.75;7.00
46044;PMS7003;31781;54.094;13.428;2022-07-01T01:09:21;14.75;12.00;8.75
46044;PMS7003;31781;54.094;13.428;2022-07-01T01:14:48;11.00;11.00;8.75
46044;PMS7003;31781;54.094;13.428;2022-07-01T01:19:52;15.50;13.75;10.00
46044;PMS7003;31781;54.094;13.428;2022-07-01T01:25:00;14.00;13.25;10.00
46044;PMS7003;31781;54.094;13.428;2022-07-01T01:30:03;10.50;9.25;7.50
46044;PMS7003;31781;54.094;13.428;2022-07-01T01:35:06;11.00;11.00;9.25
46044;PMS7003;31781;54.094;13.428;2022-07-01T01:40:15;13.00;11.50;8.25
46044;PMS7003;31781;54.094;13.428;2022-07-01T01:45:18;13.50;13.50;9.75
46044;PMS7003;31781;54.094;13.428;2022-07-01T01:50:21;11.50;10.25;8.00
46044;PMS7003;31781;54.094;13.428;2022-07-01T01:55:29;11.75;11.75;8.25
46044;PMS7003;31781;54.094;13.428;2022-07-01T02:00:32;13.00;13.00;9.75
46044;PMS7003;31781;54.094;13.428;2022-07-01T02:05:35;12.00;10.25;8.25
46044;PMS7003;31781;54.094;13.428;2022-07-01T02:10:43;15.25;12.50;9.00
46044;PMS7003;31781;54.094;13.428;2022-07-01T02:15:46;14.25;14.00;9.00
46044;PMS7003;31781;54.094;13.428;2022-07-01T02:20:49;12.50;12.25;9.50
46044;PMS7003;31781;54.094;13.428;2022-07-01T02:25:57;15.75;13.75;10.00
46044;PMS7003;31781;54.094;13.428;2022-07-01T02:31:00;9.00;9.00;6.50
46044;PMS7003;31781;54.094;13.428;2022-07-01T02:36:03;11.25;11.25;8.50
46044;PMS7003;31781;54.094;13.428;2022-07-01T02:41:11;11.50;11.50;8.75
46044;PMS7003;31781;54.094;13.428;2022-07-01T02:46:14;11.75;11.75;8.25
46044;PMS7003;31781;54.094;13.428;2022-07-01T02:51:17;13.00;13.00;10.00
46044;PMS7003;31781;54.094;13.428;2022-07-01T02:56:25;10.00;10.00;7.75
46044;PMS7003;31781;54.094;13.428;2022-07-01T03:01:28;12.75;11.25;7.50
46044;PMS7003;31781;54.094;13.428;2022-07-01T03:06:31;13.00;11.75;8.25
46044;PMS7003;31781;54.094;13.428;2022-07-01T03:11:39;12.00;10.75;8.25
46044;PMS7003;31781;54.094;13.428;2022-07-01T03:16:57;14.75;12.00;8.00
46044;PMS7003;31781;54.094;13.428;2022-07-01T03:22:00;9.25;9.25;6.25
46044;PMS7003;31781;54.094;13.428;2022-07-01T03:27:03;11.25;11.25;8.50
46044;PMS7003;31781;54.094;13.428;2022-07-01T03:32:12;8.50;8.50;6.00
46044;PMS7003;31781;54.094;13.428;2022-07-01T03:37:15;11.25;9.25;7.25
46044;PMS7003;31781;54.094;13.428;2022-07-01T03:42:18;13.50;10.00;7.50
46044;PMS7003;31781;54.094;13.428;2022-07-01T03:47:27;10.00;8.00;6.25
46044;PMS7003;31781;54.094;13.428;2022-07-01T03:52:29;8.50;8.50;5.50
46044;PMS7003;31781;54.094;13.428;2022-07-01T03:57:32;8.00;6.25;5.50
46044;PMS7003;31781;54.094;13.428;2022-07-01T04:02:40;9.75;8.00;7.50
46044;PMS7003;31781;54.094;13.428;2022-07-01T04:07:43;11.25;9.25;7.00
46044;PMS7003;31781;54.094;13.428;2022-07-01T04:12:46;10.25;7.75;6.00
46044;PMS7003;31781;54.094;13.428;2022-07-01T04:18:04;10.75;8.75;7.50
46044;PMS7003;31781;54.094;13.428;2022-07-01T04:23:06;11.50;10.50;8.00
46044;PMS7003;31781;54.094;13.428;2022-07-01T04:28:09;13.00;12.00;8.00
46044;PMS7003;31781;54.094;13.428;2022-07-01T04:33:17;11.50;9.50;7.75
46044;PMS7003;31781;54.094;13.428;2022-07-01T04:38:20;10.50;10.00;9.00
46044;PMS7003;31781;54.094;13.428;2022-07-01T04:43:39;13.00;13.00;9.25
46044;PMS7003;31781;54.094;13.428;2022-07-01T04:48:42;12.25;12.25;10.00
46044;PMS7003;31781;54.094;13.428;2022-07-01T04:53:45;13.00;13.00;9.50
46044;PMS7003;31781;54.094;13.428;2022-07-01T04:58:53;16.25;15.25;11.00
46044;PMS7003;31781;54.094;13.428;2022-07-01T05:03:57;15.50;14.25;9.50
46044;PMS7003;31781;54.094;13.428;2022-07-01T05:09:00;12.50;12.50;10.00
46044;PMS7003;31781;54.094;13.428;2022-07-01T05:19:22;14.75;13.25;9.75
46044;PMS7003;31781;54.094;13.428;2022-07-01T05:24:26;15.00;13.75;10.00
46044;PMS7003;31781;54.094;13.428;2022-07-01T05:29:30;12.00;12.00;9.25
46044;PMS7003;31781;54.094;13.428;2022-07-01T05:34:39;14.00;14.00;9.25
46044;PMS7003;31781;54.094;13.428;2022-07-01T05:39:42;16.25;14.25;10.50
46044;PMS7003;31781;54.094;13.428;2022-07-01T05:44:51;12.75;12.00;8.50
46044;PMS7003;31781;54.094;13.428;2022-07-01T05:49:59;13.75;13.75;9.00
46044;PMS7003;31781;54.094;13.428;2022-07-01T05:55:02;15.50;15.50;9.75
46044;PMS7003;31781;54.094;13.428;2022-07-01T06:00:06;17.50;14.25;9.75
46044;PMS7003;31781;54.094;13.428;2022-07-01T06:05:15;15.00;11.75;8.00
46044;PMS7003;31781;54.094;13.428;2022-07-01T06:10:17;12.75;12.75;8.50
46044;PMS7003;31781;54.094;13.428;2022-07-01T06:15:20;14.00;14.00;9.25
46044;PMS7003;31781;54.094;13.428;2022-07-01T06:20:28;11.50;11.50;8.25
46044;PMS7003;31781;54.094;13.428;2022-07-01T06:25:31;11.67;11.67;9.00
46044;PMS7003;31781;54.094;13.428;2022-07-01T06:30:34;11.50;11.50;10.00
46044;PMS7003;31781;54.094;13.428;2022-07-01T06:35:42;14.25;10.75;9.00
46044;PMS7003;31781;54.094;13.428;2022-07-01T06:40:45;14.50;13.75;10.00
46044;PMS7003;31781;54.094;13.428;2022-07-01T06:45:47;16.50;14.75;11.25
46044;PMS7003;31781;54.094;13.428;2022-07-01T06:50:56;12.33;12.33;9.33
46044;PMS7003;31781;54.094;13.428;2022-07-01T06:55:59;9.00;9.00;7.00
46044;PMS7003;31781;54.094;13.428;2022-07-01T07:01:01;11.00;10.67;8.33
46044;PMS7003;31781;54.094;13.428;2022-07-01T07:06:09;10.00;10.00;7.00
46044;PMS7003;31781;54.094;13.428;2022-07-01T07:11:12;8.67;8.67;7.33
46044;PMS7003;31781;54.094;13.428;2022-07-01T07:16:15;8.00;8.00;7.00
46044;PMS7003;31781;54.094;13.428;2022-07-01T07:21:24;8.33;8.33;6.33
46044;PMS7003;31781;54.094;13.428;2022-07-01T07:26:27;9.00;9.00;8.00
46044;PMS7003;31781;54.094;13.428;2022-07-01T07:31:29;19.50;19.50;18.25
46044;PMS7003;31781;54.094;13.428;2022-07-01T07:36:37;8.00;8.00;7.00
46044;PMS7003;31781;54.094;13.428;2022-07-01T07:41:40;11.00;7.33;5.33
46044;PMS7003;31781;54.094;13.428;2022-07-01T07:52:02;8.33;8.33;6.33
46044;PMS7003;31781;54.094;13.428;2022-07-01T07:57:05;8.33;8.33;6.33
46044;PMS7003;31781;54.094;13.428;2022-07-01T08:02:08;9.33;9.33;6.67
46044;PMS7003;31781;54.094;13.428;2022-07-01T08:07:16;12.00;9.00;7.33
46044;PMS7003;31781;54.094;13.428;2022-07-01T08:12:19;11.00;11.00;8.00
46044;PMS7003;31781;54.094;13.428;2022-07-01T08:17:21;9.33;7.00;6.33
46044;PMS7003;31781;54.094;13.428;2022-07-01T08:22:29;9.00;6.67;5.33
46044;PMS7003;31781;54.094;13.428;2022-07-01T08:27:32;11.00;9.67;7.33
46044;PMS7003;31781;54.094;13.428;2022-07-01T08:32:35;8.33;7.00;5.67
46044;PMS7003;31781;54.094;13.428;2022-07-01T08:37:43;6.75;6.75;6.25
46044;PMS7003;31781;54.094;13.428;2022-07-01T08:42:45;9.00;9.00;8.00
46044;PMS7003;31781;54.094;13.428;2022-07-01T08:47:49;11.50;10.00;7.25
46044;PMS7003;31781;54.094;13.428;2022-07-01T08:52:57;9.00;7.50;6.50
46044;PMS7003;31781;54.094;13.428;2022-07-01T08:58:00;12.50;12.00;9.00
46044;PMS7003;31781;54.094;13.428;2022-07-01T09:03:03;8.75;8.75;7.75
46044;PMS7003;31781;54.094;13.428;2022-07-01T09:08:11;12.25;12.00;9.00
46044;PMS7003;31781;54.094;13.428;2022-07-01T09:13:14;15.25;13.00;10.00
46044;PMS7003;31781;54.094;13.428;2022-07-01T09:18:17;13.00;11.00;9.25
46044;PMS7003;31781;54.094;13.428;2022-07-01T09:23:25;15.00;13.00;11.00
46044;PMS7003;31781;54.094;13.428;2022-07-01T09:28:28;11.67;11.33;9.33
46044;PMS7003;31781;54.094;13.428;2022-07-01T09:33:30;13.00;13.00;9.33
46044;PMS7003;31781;54.094;13.428;2022-07-01T09:38:44;10.25;10.25;8.00
46044;PMS7003;31781;54.094;13.428;2022-07-01T09:43:47;13.00;13.00;10.00
46044;PMS7003;31781;54.094;13.428;2022-07-01T09:48:50;16.00;13.33;9.00
46044;PMS7003;31781;54.094;13.428;2022-07-01T09:53:58;24.67;22.33;15.33
46044;PMS7003;31781;54.094;13.428;2022-07-01T09:59:01;18.67;18.00;13.67
46044;PMS7003;31781;54.094;13.428;2022-07-01T10:04:04;20.00;19.00;14.00
46044;PMS7003;31781;54.094;13.428;2022-07-01T10:09:18;20.33;19.00;13.67
46044;PMS7003;31781;54.094;13.428;2022-07-01T10:14:35;24.33;23.00;18.00
46044;PMS7003;31781;54.094;13.428;2022-07-01T10:19:41;16.00;14.33;10.33
46044;PMS7003;31781;54.094;13.428;2022-07-01T10:24:49;25.67;23.67;16.00
46044;PMS7003;31781;54.094;13.428;2022-07-01T10:35:16;22.33;22.00;15.67
46044;PMS7003;31781;54.094;13.428;2022-07-01T10:40:25;17.00;17.00;12.00
46044;PMS7003;31781;54.094;13.428;2022-07-01T10:45:43;13.00;12.00;9.00
46044;PMS7003;31781;54.094;13.428;2022-07-01T10:50:46;9.00;8.00;6.00
46044;PMS7003;31781;54.094;13.428;2022-07-01T10:55:55;12.00;12.00;9.33
46044;PMS7003;31781;54.094;13.428;2022-07-01T11:00:58;13.00;12.00;8.67
46044;PMS7003;31781;54.094;13.428;2022-07-01T11:06:01;14.67;12.00;10.00
46044;PMS7003;31781;54.094;13.428;2022-07-01T11:11:10;13.50;12.00;9.25
46044;PMS7003;31781;54.094;13.428;2022-07-01T11:16:14;11.50;11.50;9.50
46044;PMS7003;31781;54.094;13.428;2022-07-01T11:21:17;16.50;14.50;10.75
46044;PMS7003;31781;54.094;13.428;2022-07-01T11:26:28;11.25;11.25;8.25
46044;PMS7003;31781;54.094;13.428;2022-07-01T11:31:31;11.25;10.50;8.25
46044;PMS7003;31781;54.094;13.428;2022-07-01T11:41:57;11.50;9.75;7.50
46044;PMS7003;31781;54.094;13.428;2022-07-01T11:47:02;11.00;11.00;8.50
46044;PMS7003;31781;54.094;13.428;2022-07-01T11:52:06;14.25;14.25;11.00
46044;PMS7003;31781;54.094;13.428;2022-07-01T11:57:15;12.50;10.75;9.00
46044;PMS7003;31781;54.094;13.428;2022-07-01T12:02:20;20.00;19.33;15.33
46044;PMS7003;31781;54.094;13.428;2022-07-01T12:07:24;12.75;12.75;9.50
46044;PMS7003;31781;54.094;13.428;2022-07-01T12:12:32;13.50;13.50;10.25
46044;PMS7003;31781;54.094;13.428;2022-07-01T12:17:35;14.67;13.00;11.00
46044;PMS7003;31781;54.094;13.428;2022-07-01T12:22:39;11.00;11.00;9.33
46044;PMS7003;31781;54.094;13.428;2022-07-01T12:27:57;8.67;8.67;7.00
46044;PMS7003;31781;54.094;13.428;2022-07-01T12:33:08;11.00;9.00;7.00
46044;PMS7003;31781;54.094;13.428;2022-07-01T12:38:14;12.00;11.00;9.00
46044;PMS7003;31781;54.094;13.428;2022-07-01T12:43:30;7.33;7.33;6.00
46044;PMS7003;31781;54.094;13.428;2022-07-01T12:48:47;7.33;7.33;6.00
46044;PMS7003;31781;54.094;13.428;2022-07-01T12:53:50;6.00;6.00;5.33
46044;PMS7003;31781;54.094;13.428;2022-07-01T12:58:58;8.67;7.00;5.00
46044;PMS7003;31781;54.094;13.428;2022-07-01T13:04:01;5.67;5.67;5.33
46044;PMS7003;31781;54.094;13.428;2022-07-01T13:09:04;8.67;7.33;6.33
46044;PMS7003;31781;54.094;13.428;2022-07-01T13:14:12;9.67;9.00;7.33
46044;PMS7003;31781;54.094;13.428;2022-07-01T13:19:15;5.00;5.00;4.00
46044;PMS7003;31781;54.094;13.428;2022-07-01T13:24:17;4.00;4.00;4.00
46044;PMS7003;31781;54.094;13.428;2022-07-01T13:29:41;5.33;4.00;3.00
46044;PMS7003;31781;54.094;13.428;2022-07-01T13:34:45;5.00;5.00;4.00
46044;PMS7003;31781;54.094;13.428;2022-07-01T13:39:47;4.00;4.00;4.00
46044;PMS7003;31781;54.094;13.428;2022-07-01T13:44:56;4.00;4.00;3.00
46044;PMS7003;31781;54.094;13.428;2022-07-01T13:49:59;1.67;1.67;1.67
46044;PMS7003;31781;54.094;13.428;2022-07-01T13:55:18;2.00;2.00;1.00
46044;PMS7003;31781;54.094;13.428;2022-07-01T14:00:21;1.00;1.00;1.00
46044;PMS7003;31781;54.094;13.428;2022-07-01T14:05:24;1.00;1.00;1.00
46044;PMS7003;31781;54.094;13.428;2022-07-01T14:10:32;0.00;0.00;0.00
46044;PMS7003;31781;54.094;13.428;2022-07-01T14:15:35;1.00;1.00;1.00
46044;PMS7003;31781;54.094;13.428;2022-07-01T14:20:37;0.67;0.67;0.00
46044;PMS7003;31781;54.094;13.428;2022-07-01T14:25:51;0.00;0.00;0.00
46044;PMS7003;31781;54.094;13.428;2022-07-01T14:30:55;0.00;0.00;0.00
46044;PMS7003;31781;54.094;13.428;2022-07-01T14:35:57;1.00;1.00;1.00
46044;PMS7003;31781;54.094;13.428;2022-07-01T14:41:06;0.00;0.00;0.00
46044;PMS7003;31781;54.094;13.428;2022-07-01T14:46:09;0.00;0.00;0.00
46044;PMS7003;31781;54.094;13.428;2022-07-01T14:51:12;2.33;1.00;1.00
46044;PMS7003;31781;54.094;13.428;2022-07-01T14:56:20;1.00;1.00;1.00
46044;PMS7003;31781;54.094;13.428;2022-07-01T15:01:23;2.00;2.00;2.00
46044;PMS7003;31781;54.094;13.428;2022-07-01T15:06:26;4.67;4.67;4.33
46044;PMS7003;31781;54.094;13.428;2022-07-01T15:11:34;2.00;2.00;1.00
46044;PMS7003;31781;54.094;13.428;2022-07-01T15:16:37;0.33;0.33;0.00
46044;PMS7003;31781;54.094;13.428;2022-07-01T15:21:40;4.33;4.33;3.67
46044;PMS7003;31781;54.094;13.428;2022-07-01T15:26:48;1.00;1.00;1.00
46044;PMS7003;31781;54.094;13.428;2022-07-01T15:31:51;1.00;1.00;0.67
46044;PMS7003;31781;54.094;13.428;2022-07-01T15:36:54;5.25;5.25;3.25
46044;PMS7003;31781;54.094;13.428;2022-07-01T15:42:02;0.67;0.67;0.00
46044;PMS7003;31781;54.094;13.428;2022-07-01T15:47:05;0.33;0.33;0.00
46044;PMS7003;31781;54.094;13.428;2022-07-01T15:52:08;0.00;0.00;0.00
46044;PMS7003;31781;54.094;13.428;2022-07-01T15:57:27;1.67;0.33;0.00
46044;PMS7003;31781;54.094;13.428;2022-07-01T16:02:30;0.00;0.00;0.00
46044;PMS7003;31781;54.094;13.428;2022-07-01T16:07:33;1.00;0.00;0.00
46044;PMS7003;31781;54.094;13.428;2022-07-01T16:12:44;0.00;0.00;0.00
46044;PMS7003;31781;54.094;13.428;2022-07-01T16:17:47;2.00;0.00;0.00
46044;PMS7003;31781;54.094;13.428;2022-07-01T16:22:51;0.00;0.00;0.00
46044;PMS7003;31781;54.094;13.428;2022-07-01T16:28:02;2.00;2.00;2.00
46044;PMS7003;31781;54.094;13.428;2022-07-01T16:33:05;0.00;0.00;0.00
46044;PMS7003;31781;54.094;13.428;2022-07-01T16:38:10;1.00;1.00;0.00
46044;PMS7003;31781;54.094;13.428;2022-07-01T16:43:20;0.00;0.00;0.00
46044;PMS7003;31781;54.094;13.428;2022-07-01T16:48:33;0.00;0.00;0.00
46044;PMS7003;31781;54.094;13.428;2022-07-01T16:53:38;0.00;0.00;0.00
46044;PMS7003;31781;54.094;13.428;2022-07-01T16:58:52;0.00;0.00;0.00
46044;PMS7003;31781;54.094;13.428;2022-07-01T17:03:58;0.00;0.00;0.00
46044;PMS7003;31781;54.094;13.428;2022-07-01T17:09:03;1.00;1.00;0.00
46044;PMS7003;31781;54.094;13.428;2022-07-01T17:14:21;0.00;0.00;0.00
46044;PMS7003;31781;54.094;13.428;2022-07-01T17:19:25;1.00;1.00;0.00
46044;PMS7003;31781;54.094;13.428;2022-07-01T17:24:28;0.00;0.00;0.00
46044;PMS7003;31781;54.094;13.428;2022-07-01T17:29:39;0.00;0.00;0.00
46044;PMS7003;31781;54.094;13.428;2022-07-01T17:34:50;0.00;0.00;0.00
46044;PMS7003;31781;54.094;13.428;2022-07-01T17:39:53;0.00;0.00;0.00
46044;PMS7003;31781;54.094;13.428;2022-07-01T17:50:22;0.00;0.00;0.00
46044;PMS7003;31781;54.094;13.428;2022-07-01T17:55:26;0.00;0.00;0.00
46044;PMS7003;31781;54.094;13.428;2022-07-01T18:00:29;0.00;0.00;0.00
46044;PMS7003;31781;54.094;13.428;2022-07-01T18:05:38;0.00;0.00;0.00
46044;PMS7003;31781;54.094;13.428;2022-07-01T18:10:43;0.00;0.00;0.00
46044;PMS7003;31781;54.094;13.428;2022-07-01T18:15:47;1.00;0.50;0.50
46044;PMS7003;31781;54.094;13.428;2022-07-01T18:21:00;3.25;3.25;2.50
46044;PMS7003;31781;54.094;13.428;2022-07-01T18:26:10;0.00;0.00;0.00
46044;PMS7003;31781;54.094;13.428;2022-07-01T18:31:16;0.00;0.00;0.00
46044;PMS7003;31781;54.094;13.428;2022-07-01T18:36:28;0.00;0.00;0.00
46044;PMS7003;31781;54.094;13.428;2022-07-01T18:41:33;0.00;0.00;0.00
46044;PMS7003;31781;54.094;13.428;2022-07-01T18:46:35;0.00;0.00;0.00
46044;PMS7003;31781;54.094;13.428;2022-07-01T18:51:44;0.25;0.25;0.00
46044;PMS7003;31781;54.094;13.428;2022-07-01T18:56:47;0.00;0.00;0.00
46044;PMS7003;31781;54.094;13.428;2022-07-01T19:01:49;0.25;0.25;0.00
46044;PMS7003;31781;54.094;13.428;2022-07-01T19:07:00;0.50;0.50;0.50
46044;PMS7003;31781;54.094;13.428;2022-07-01T19:12:04;1.75;1.75;1.50
46044;PMS7003;31781;54.094;13.428;2022-07-01T19:17:08;1.25;1.25;0.75
46044;PMS7003;31781;54.094;13.428;2022-07-01T19:22:16;0.00;0.00;0.00
46044;PMS7003;31781;54.094;13.428;2022-07-01T19:27:19;1.75;1.75;1.75
46044;PMS7003;31781;54.094;13.428;2022-07-01T19:32:21;6.25;5.75;4.00
46044;PMS7003;31781;54.094;13.428;2022-07-01T19:37:40;2.75;2.75;2.00
46044;PMS7003;31781;54.094;13.428;2022-07-01T19:42:59;1.75;1.75;0.75
46044;PMS7003;31781;54.094;13.428;2022-07-01T19:48:02;0.50;0.25;0.00
46044;PMS7003;31781;54.094;13.428;2022-07-01T19:53:05;0.75;0.75;0.75
46044;PMS7003;31781;54.094;13.428;2022-07-01T19:58:16;2.50;0.75;0.75
46044;PMS7003;31781;54.094;13.428;2022-07-01T20:03:20;1.00;1.00;1.00
46044;PMS7003;31781;54.094;13.428;2022-07-01T20:08:23;0.50;0.50;0.50
46044;PMS7003;31781;54.094;13.428;2022-07-01T20:13:31;2.75;2.75;1.75
46044;PMS7003;31781;54.094;13.428;2022-07-01T20:18:33;1.00;1.00;0.50
46044;PMS7003;31781;54.094;13.428;2022-07-01T20:23:37;2.75;2.75;1.75
46044;PMS7003;31781;54.094;13.428;2022-07-01T20:28:45;1.25;1.25;1.00
46044;PMS7003;31781;54.094;13.428;2022-07-01T20:39:07;0.75;0.75;0.50
46044;PMS7003;31781;54.094;13.428;2022-07-01T20:44:10;2.50;0.50;0.50
46044;PMS7003;31781;54.094;13.428;2022-07-01T20:49:12;0.50;0.50;0.50
46044;PMS7003;31781;54.094;13.428;2022-07-01T20:54:20;1.50;1.50;1.25
46044;PMS7003;31781;54.094;13.428;2022-07-01T20:59:23;1.75;1.75;1.25
46044;PMS7003;31781;54.094;13.428;2022-07-01T21:04:36;1.50;1.50;0.50
46044;PMS7003;31781;54.094;13.428;2022-07-01T21:09:44;1.00;1.00;0.25
46044;PMS7003;31781;54.094;13.428;2022-07-01T21:14:48;3.25;2.25;2.25
46044;PMS7003;31781;54.094;13.428;2022-07-01T21:19:50;1.50;1.50;0.50
46044;PMS7003;31781;54.094;13.428;2022-07-01T21:24:58;1.00;1.00;1.00
46044;PMS7003;31781;54.094;13.428;2022-07-01T21:30:01;0.50;0.50;0.50
46044;PMS7003;31781;54.094;13.428;2022-07-01T21:35:05;1.50;1.50;0.75
46044;PMS7003;31781;54.094;13.428;2022-07-01T21:40:14;1.50;1.50;0.50
46044;PMS7003;31781;54.094;13.428;2022-07-01T21:45:17;0.00;0.00;0.00
46044;PMS7003;31781;54.094;13.428;2022-07-01T21:50:21;2.25;2.25;2.25
46044;PMS7003;31781;54.094;13.428;2022-07-01T21:55:30;1.75;1.75;1.50
46044;PMS7003;31781;54.094;13.428;2022-07-01T22:00:32;4.50;2.50;2.25
46044;PMS7003;31781;54.094;13.428;2022-07-01T22:05:35;3.00;3.00;2.50
46044;PMS7003;31781;54.094;13.428;2022-07-01T22:10:43;4.50;4.50;3.50
46044;PMS7003;31781;54.094;13.428;2022-07-01T22:15:48;5.00;5.00;3.75
46044;PMS7003;31781;54.094;13.428;2022-07-01T22:20:52;3.75;3.75;3.00
46044;PMS7003;31781;54.094;13.428;2022-07-01T22:26:01;4.00;4.00;3.50
46044;PMS7003;31781;54.094;13.428;2022-07-01T22:31:04;4.00;4.00;3.00
46044;PMS7003;31781;54.094;13.428;2022-07-01T22:36:07;4.50;3.00;3.00
46044;PMS7003;31781;54.094;13.428;2022-07-01T22:41:16;5.25;3.75;3.25
46044;PMS7003;31781;54.094;13.428;2022-07-01T22:46:21;3.75;2.50;2.25
46044;PMS7003;31781;54.094;13.428;2022-07-01T22:51:31;2.00;2.00;2.00
46044;PMS7003;31781;54.094;13.428;2022-07-01T22:56:51;3.00;3.00;2.50
46044;PMS7003;31781;54.094;13.428;2022-07-01T23:01:58;2.50;2.00;2.00
46044;PMS7003;31781;54.094;13.428;2022-07-01T23:07:03;2.50;2.50;2.00
46044;PMS7003;31781;54.094;13.428;2022-07-01T23:12:18;2.75;2.00;2.00
46044;PMS7003;31781;54.094;13.428;2022-07-01T23:17:27;3.50;3.50;3.00
46044;PMS7003;31781;54.094;13.428;2022-07-01T23:22:31;3.00;3.00;2.00
46044;PMS7003;31781;54.094;13.428;2022-07-01T23:27:55;3.75;3.75;3.75
46044;PMS7003;31781;54.094;13.428;2022-07-01T23:32:58;2.00;2.00;2.00
46044;PMS7003;31781;54.094;13.428;2022-07-01T23:38:04;3.00;3.00;2.50
46044;PMS7003;31781;54.094;13.428;2022-07-01T23:43:18;3.00;3.00;3.00
46044;PMS7003;31781;54.094;13.428;2022-07-01T23:48:20;3.75;3.75;3.50
46044;PMS7003;31781;54.094;13.428;2022-07-01T23:53:23;3.00;3.00;2.00
46044;PMS7003;31781;54.094;13.428;2022-07-01T23:58:32;2.25;2.25;2.00
